Time;durP1;ratioP1;P1;durP2;ratioP2;P2;SDS_P1;SDS_P2;PMS_P1;PMS_P2;Temp;Humidity;BMP_temperature;BMP_pressure;BME280_temperature;BME280_humidity;BME280_pressure;Samples;Min_cycle;Max_cycle;Signal;HPM_P1;HPM_P2
2021/12/04 00:00:50;;;;;;;52.28;21.67;;;4.30;99.90;;;;;;5096168;28;20070;-91
2021/12/04 00:03:15;;;;;;;54.40;21.70;;;4.30;99.90;;;;;;5095689;28;20046;-92
2021/12/04 00:05:47;;;;;;;51.42;21.10;;;4.30;99.90;;;;;;5078973;28;20064;-92
2021/12/04 00:08:13;;;;;;;54.55;21.58;;;4.50;99.90;;;;;;5078765;28;20036;-92
2021/12/04 00:10:39;;;;;;;62.33;21.45;;;4.40;99.90;;;;;;5080707;28;20051;-92
2021/12/04 00:13:05;;;;;;;56.58;21.17;;;4.30;99.90;;;;;;5099601;28;20048;-92
2021/12/04 00:15:31;;;;;;;48.63;20.88;;;4.30;99.90;;;;;;5082413;28;20481;-92
2021/12/04 00:17:58;;;;;;;61.22;20.73;;;4.30;99.90;;;;;;5082694;28;20050;-92
2021/12/04 00:20:30;;;;;;;46.22;20.17;;;4.30;99.90;;;;;;5082605;28;20435;-92
2021/12/04 00:22:59;;;;;;;51.63;21.75;;;4.40;99.90;;;;;;5082079;28;20066;-91
2021/12/04 00:25:25;;;;;;;48.35;19.63;;;4.30;99.90;;;;;;5082364;28;20054;-92
2021/12/04 00:27:51;;;;;;;44.65;20.15;;;4.30;99.90;;;;;;5082175;28;20051;-92
2021/12/04 00:30:16;;;;;;;63.60;21.65;;;4.50;99.90;;;;;;5098942;28;20043;-91
2021/12/04 00:32:52;;;;;;;53.38;22.05;;;4.30;99.90;;;;;;5099124;28;20039;-90
2021/12/04 00:35:23;;;;;;;46.42;20.63;;;4.30;99.90;;;;;;5081018;28;20047;-90
2021/12/04 00:51:11;;;;;;;35.72;16.85;;;4.30;99.90;;;;;;5115735;28;20052;-92
2021/12/04 00:53:36;;;;;;;42.88;19.48;;;4.30;99.90;;;;;;5098277;28;20043;-90
2021/12/04 00:56:06;;;;;;;35.30;17.05;;;4.30;99.90;;;;;;5081610;28;20553;-91
2021/12/04 00:58:32;;;;;;;30.65;17.05;;;4.40;99.90;;;;;;5098348;28;20058;-91
2021/12/04 01:00:57;;;;;;;31.00;16.85;;;4.30;99.90;;;;;;5098183;28;20043;-91
2021/12/04 01:03:23;;;;;;;29.00;16.67;;;4.30;99.90;;;;;;5081586;28;20044;-91
2021/12/04 01:05:49;;;;;;;30.40;16.58;;;4.30;99.90;;;;;;5098189;28;20051;-92
2021/12/04 01:08:15;;;;;;;35.22;17.23;;;4.30;99.90;;;;;;5098342;28;20049;-92
2021/12/04 01:10:42;;;;;;;33.33;17.23;;;4.30;99.90;;;;;;5081244;28;20499;-92
2021/12/04 01:13:11;;;;;;;31.85;15.85;;;4.30;99.90;;;;;;5098475;28;20047;-92
2021/12/04 01:15:42;;;;;;;30.25;15.20;;;4.30;99.90;;;;;;5098008;28;20126;-91
2021/12/04 01:18:08;;;;;;;32.17;16.15;;;4.30;99.90;;;;;;5098410;28;20039;-90
2021/12/04 01:20:34;;;;;;;29.00;15.77;;;4.30;99.90;;;;;;5098249;28;20044;-91
2021/12/04 01:22:59;;;;;;;26.33;15.73;;;4.30;99.90;;;;;;5096630;28;20046;-90
2021/12/04 01:25:25;;;;;;;28.02;14.73;;;4.30;99.90;;;;;;5098139;28;20047;-91
2021/12/04 01:27:51;;;;;;;25.13;15.32;;;4.30;99.90;;;;;;5097388;28;20039;-91
2021/12/04 01:30:16;;;;;;;25.55;15.38;;;4.30;99.90;;;;;;5097688;28;20044;-91
2021/12/04 01:32:42;;;;;;;26.10;14.90;;;4.30;99.90;;;;;;5097863;28;20053;-92
2021/12/04 01:35:08;;;;;;;27.88;16.45;;;4.30;99.90;;;;;;5097795;28;20032;-91
2021/12/04 01:37:34;;;;;;;25.80;15.82;;;4.30;99.90;;;;;;5097777;28;20044;-91
2021/12/04 01:39:59;;;;;;;27.70;16.35;;;4.30;99.90;;;;;;5097718;28;20447;-91
2021/12/04 01:42:25;;;;;;;25.00;15.00;;;4.40;99.90;;;;;;5097720;28;20048;-91
2021/12/04 01:44:51;;;;;;;29.13;15.88;;;4.30;99.90;;;;;;5097124;28;20036;-92
2021/12/04 01:47:21;;;;;;;28.65;15.90;;;4.30;99.90;;;;;;5097378;28;20040;-90
2021/12/04 01:49:52;;;;;;;25.53;15.23;;;4.30;99.90;;;;;;5097782;28;20044;-90
2021/12/04 01:52:19;;;;;;;25.85;16.55;;;4.30;99.90;;;;;;5097128;28;20067;-90
2021/12/04 01:54:46;;;;;;;27.10;16.45;;;4.30;99.90;;;;;;5097273;28;20044;-91
2021/12/04 01:57:15;;;;;;;31.95;18.02;;;4.30;99.90;;;;;;5080603;28;20055;-91
2021/12/04 01:59:41;;;;;;;31.00;16.55;;;4.30;99.90;;;;;;5097202;28;20048;-91
2021/12/04 02:02:07;;;;;;;36.13;17.98;;;4.30;99.90;;;;;;5079118;28;20055;-91
2021/12/04 02:04:32;;;;;;;32.00;16.92;;;4.30;99.90;;;;;;5079934;28;20553;-90
2021/12/04 02:07:03;;;;;;;32.40;17.90;;;4.30;99.90;;;;;;5080071;28;20053;-91
2021/12/04 02:09:29;;;;;;;27.50;18.15;;;4.30;99.90;;;;;;5097059;28;20048;-91
2021/12/04 02:11:55;;;;;;;28.25;16.58;;;4.30;99.90;;;;;;5096859;28;20079;-91
2021/12/04 02:14:20;;;;;;;29.13;17.30;;;4.30;99.90;;;;;;5096728;28;20527;-90
2021/12/04 02:16:46;;;;;;;28.88;16.42;;;4.30;99.90;;;;;;5097170;28;20044;-90
2021/12/04 02:19:14;;;;;;;23.45;16.23;;;4.20;99.90;;;;;;5096703;28;20415;-91
2021/12/04 02:21:39;;;;;;;23.42;15.57;;;4.30;99.90;;;;;;5096601;28;20382;-90
2021/12/04 02:24:05;;;;;;;23.17;14.27;;;4.30;99.90;;;;;;5079280;28;20077;-90
2021/12/04 02:26:32;;;;;;;27.92;16.10;;;4.20;99.90;;;;;;5096450;28;20086;-91
2021/12/04 02:28:58;;;;;;;21.65;14.18;;;4.30;99.90;;;;;;5096691;28;20040;-92
2021/12/04 02:31:24;;;;;;;21.35;14.50;;;4.20;99.90;;;;;;5096724;28;20565;-90
2021/12/04 02:33:50;;;;;;;18.83;13.75;;;4.20;99.90;;;;;;5095583;28;20089;-91
2021/12/04 02:36:16;;;;;;;22.13;14.70;;;4.30;99.90;;;;;;5096119;28;20130;-91
2021/12/04 02:38:46;;;;;;;24.70;14.50;;;4.20;99.90;;;;;;5078320;28;20154;-91
2021/12/04 02:41:12;;;;;;;20.87;13.37;;;4.30;99.90;;;;;;5079026;28;20546;-91
2021/12/04 02:43:38;;;;;;;18.88;13.05;;;4.20;99.90;;;;;;5096077;28;20035;-90
2021/12/04 02:46:03;;;;;;;20.48;13.35;;;4.20;99.90;;;;;;5096594;28;20044;-91
2021/12/04 02:48:29;;;;;;;18.08;13.10;;;4.20;99.90;;;;;;5096451;28;20108;-90
2021/12/04 02:50:55;;;;;;;19.40;13.45;;;4.30;99.90;;;;;;5096249;28;20047;-91
2021/12/04 02:53:21;;;;;;;20.45;13.15;;;4.20;99.90;;;;;;5096367;28;20044;-91
2021/12/04 02:55:47;;;;;;;23.38;12.63;;;4.20;99.90;;;;;;5096203;28;20779;-90
2021/12/04 02:58:14;;;;;;;19.15;13.02;;;4.20;99.90;;;;;;5096320;28;20055;-90
2021/12/04 03:00:46;;;;;;;20.48;13.07;;;4.20;99.90;;;;;;5079368;28;20079;-90
2021/12/04 03:03:12;;;;;;;20.63;12.75;;;4.20;99.90;;;;;;5078624;28;20055;-91
2021/12/04 03:05:38;;;;;;;16.88;11.88;;;4.30;99.90;;;;;;5078784;28;20043;-88
2021/12/04 03:08:06;;;;;;;15.40;10.43;;;4.20;99.90;;;;;;5079240;28;20066;-91
2021/12/04 03:10:32;;;;;;;18.35;12.57;;;4.20;99.90;;;;;;5095982;28;20534;-90
2021/12/04 03:12:58;;;;;;;16.30;10.82;;;4.20;99.90;;;;;;5095852;28;20048;-90
2021/12/04 03:15:24;;;;;;;19.10;12.32;;;4.20;99.90;;;;;;5096117;28;20058;-92
2021/12/04 03:17:51;;;;;;;19.60;12.20;;;4.20;99.90;;;;;;5078858;28;20123;-90
2021/12/04 03:20:17;;;;;;;17.77;11.25;;;4.20;99.90;;;;;;5096187;28;20087;-91
2021/12/04 03:22:45;;;;;;;17.08;11.68;;;4.20;99.90;;;;;;5095578;28;20117;-90
2021/12/04 03:25:14;;;;;;;19.45;12.30;;;4.10;99.90;;;;;;5078470;28;20147;-90
2021/12/04 03:27:43;;;;;;;20.67;12.02;;;4.30;99.90;;;;;;5095774;28;20050;-90
2021/12/04 03:30:20;;;;;;;17.83;11.95;;;4.20;99.90;;;;;;5095787;28;20055;-91
2021/12/04 03:35:14;;;;;;;14.77;10.60;;;4.20;99.90;;;;;;5078997;28;20081;-91
2021/12/04 03:40:57;;;;;;;20.60;11.73;;;4.10;99.90;;;;;;5112955;28;20460;-90
2021/12/04 03:43:22;;;;;;;18.17;11.55;;;4.20;99.90;;;;;;5095598;28;20043;-90
2021/12/04 03:45:54;;;;;;;16.67;11.25;;;4.30;99.90;;;;;;5081100;28;20442;-90
2021/12/04 03:50:55;;;;;;;16.85;10.70;;;4.20;99.90;;;;;;5099296;28;19920;-90
2021/12/04 03:53:20;;;;;;;18.55;10.73;;;4.10;99.90;;;;;;5082569;28;20062;-90
2021/12/04 03:55:46;;;;;;;16.67;11.63;;;4.10;99.90;;;;;;5099655;28;20043;-90
2021/12/04 03:58:12;;;;;;;16.90;10.55;;;4.10;99.90;;;;;;5082345;28;20420;-90
2021/12/04 04:00:37;;;;;;;18.83;11.95;;;4.20;99.90;;;;;;5099474;28;20083;-90
2021/12/04 04:03:03;;;;;;;16.25;11.02;;;4.10;99.90;;;;;;5099486;28;20031;-89
2021/12/04 04:05:29;;;;;;;20.50;11.73;;;4.20;99.90;;;;;;5099412;28;20043;-89
2021/12/04 04:07:55;;;;;;;18.23;11.32;;;4.20;99.90;;;;;;5099265;28;20431;-90
2021/12/04 04:10:21;;;;;;;18.13;11.63;;;4.20;99.90;;;;;;5098996;28;20493;-90
2021/12/04 04:12:48;;;;;;;19.67;12.23;;;4.20;99.90;;;;;;5099287;28;20127;-90
2021/12/04 04:15:15;;;;;;;18.33;11.73;;;4.20;99.90;;;;;;5099449;28;20134;-90
2021/12/04 04:17:42;;;;;;;19.20;11.20;;;4.20;99.90;;;;;;5081422;28;20043;-90
2021/12/04 04:20:11;;;;;;;18.10;12.00;;;4.10;99.90;;;;;;5099055;28;20050;-91
2021/12/04 04:22:37;;;;;;;16.45;10.55;;;4.20;99.90;;;;;;5098605;28;21207;-91
2021/12/04 04:25:03;;;;;;;19.90;11.38;;;4.10;99.90;;;;;;5081460;28;20401;-91
2021/12/04 04:27:29;;;;;;;18.50;11.68;;;4.20;99.90;;;;;;5099159;28;20054;-91
2021/12/04 04:29:54;;;;;;;17.70;11.18;;;4.40;99.90;;;;;;5098980;28;20075;-89
2021/12/04 04:32:22;;;;;;;17.88;10.93;;;4.20;99.90;;;;;;5098894;28;20504;-91
2021/12/04 04:34:52;;;;;;;18.80;11.30;;;4.20;99.90;;;;;;5098675;28;20131;-91
2021/12/04 04:37:25;;;;;;;19.08;11.52;;;4.40;99.90;;;;;;5081448;28;20557;-90
2021/12/04 05:12:14;;;;;;;17.13;11.50;;;4.20;99.90;;;;;;5056712;28;20044;-90
2021/12/04 05:14:42;;;;;;;20.50;11.52;;;4.20;99.90;;;;;;5056709;28;20446;-90
2021/12/04 05:17:12;;;;;;;22.15;11.88;;;4.20;99.90;;;;;;5056248;28;20060;-89
2021/12/04 05:19:43;;;;;;;40.25;13.25;;;4.20;99.90;;;;;;5056476;28;20068;-90
2021/12/04 05:22:11;;;;;;;44.05;11.90;;;4.20;99.90;;;;;;5056298;28;20041;-89
2021/12/04 05:24:38;;;;;;;20.27;11.60;;;4.20;99.90;;;;;;5055843;28;20123;-91
2021/12/04 05:27:04;;;;;;;145.93;14.80;;;4.20;99.90;;;;;;5072956;28;20075;-90
2021/12/04 05:29:29;;;;;;;18.58;12.23;;;4.20;99.90;;;;;;5040027;28;20063;-91
2021/12/04 05:31:56;;;;;;;20.23;12.35;;;4.20;99.90;;;;;;5056313;28;20065;-91
2021/12/04 05:34:21;;;;;;;20.75;12.85;;;4.20;99.90;;;;;;5056129;28;20143;-89
2021/12/04 05:36:47;;;;;;;21.30;12.07;;;4.20;99.90;;;;;;5056016;28;20140;-90
2021/12/04 05:39:13;;;;;;;27.27;12.88;;;4.20;99.90;;;;;;5039568;28;20048;-90
2021/12/04 05:41:39;;;;;;;24.60;12.80;;;4.20;99.90;;;;;;5056193;28;20074;-90
2021/12/04 05:44:07;;;;;;;22.50;12.48;;;4.30;99.90;;;;;;5067352;28;20056;-90
2021/12/04 05:46:38;;;;;;;23.20;12.75;;;4.20;99.90;;;;;;5097308;28;20069;-90
2021/12/04 05:49:13;;;;;;;22.65;12.63;;;4.20;99.90;;;;;;5097453;28;20051;-90
2021/12/04 05:52:06;;;;;;;25.13;12.85;;;4.20;99.90;;;;;;5079873;28;20444;-90
2021/12/04 05:57:08;;;;;;;30.10;13.73;;;4.20;99.90;;;;;;5113661;28;20560;-90
2021/12/04 05:59:34;;;;;;;28.83;14.13;;;4.20;99.90;;;;;;5097163;28;20052;-90
2021/12/04 06:02:00;;;;;;;27.65;13.70;;;4.20;99.90;;;;;;5080293;28;20078;-90
2021/12/04 06:04:27;;;;;;;30.63;13.88;;;4.20;99.90;;;;;;5079096;28;20086;-90
2021/12/04 06:06:53;;;;;;;30.73;14.13;;;4.20;99.90;;;;;;5097029;28;20180;-90
2021/12/04 06:09:19;;;;;;;29.25;13.50;;;4.20;99.90;;;;;;5079765;28;20055;-90
2021/12/04 06:11:45;;;;;;;33.05;14.32;;;4.20;99.90;;;;;;5096464;28;20051;-90
2021/12/04 06:14:11;;;;;;;39.25;14.13;;;4.20;99.90;;;;;;5079800;28;20386;-89
2021/12/04 06:16:37;;;;;;;29.90;14.25;;;4.20;99.90;;;;;;5096703;28;20050;-90
2021/12/04 06:24:32;;;;;;;39.97;14.70;;;4.20;99.90;;;;;;5113056;28;20386;-90
2021/12/04 06:26:58;;;;;;;37.22;14.73;;;4.20;99.90;;;;;;5096655;28;20059;-90
2021/12/04 06:29:24;;;;;;;35.30;14.38;;;4.20;99.90;;;;;;5096859;28;20501;-90
2021/12/04 06:31:50;;;;;;;35.50;14.20;;;4.20;99.90;;;;;;5096276;28;20083;-90
2021/12/04 06:34:15;;;;;;;32.60;13.60;;;4.20;99.90;;;;;;5079116;28;20046;-90
2021/12/04 06:36:41;;;;;;;33.15;13.57;;;4.20;99.90;;;;;;5079365;28;20112;-90
2021/12/04 06:39:09;;;;;;;30.95;12.70;;;4.20;99.90;;;;;;5096060;28;20047;-90
2021/12/04 06:41:35;;;;;;;26.60;12.35;;;4.20;99.90;;;;;;5079334;28;20047;-90
2021/12/04 06:44:00;;;;;;;35.53;12.32;;;4.20;99.90;;;;;;5096175;28;20031;-90
2021/12/04 06:46:27;;;;;;;221.32;23.92;;;4.20;99.90;;;;;;5096423;28;20401;-89
2021/12/04 06:49:14;;;;;;;31.27;12.25;;;4.20;99.90;;;;;;5079558;28;20150;-91
2021/12/04 06:51:45;;;;;;;26.65;12.02;;;4.20;99.90;;;;;;5079193;28;20484;-90
2021/12/04 06:54:17;;;;;;;21.17;10.52;;;4.20;99.90;;;;;;5096062;28;20136;-91
2021/12/04 06:56:43;;;;;;;94.05;13.63;;;4.20;99.90;;;;;;5096191;28;20071;-90
2021/12/04 06:59:12;;;;;;;27.20;12.30;;;4.20;99.90;;;;;;5078772;28;20047;-90
2021/12/04 07:01:39;;;;;;;25.77;11.57;;;4.20;99.90;;;;;;5095940;28;20036;-90
2021/12/04 07:04:06;;;;;;;26.17;11.68;;;4.20;99.90;;;;;;5077884;28;20051;-90
2021/12/04 07:06:32;;;;;;;25.13;11.05;;;4.20;99.90;;;;;;5095908;28;20043;-91
2021/12/04 07:08:58;;;;;;;32.58;12.75;;;4.20;99.90;;;;;;5096232;28;20058;-91
2021/12/04 07:11:25;;;;;;;32.65;12.55;;;4.20;99.90;;;;;;5079040;28;20044;-90
2021/12/04 07:13:50;;;;;;;34.95;13.45;;;4.20;99.90;;;;;;5079151;28;20047;-90
2021/12/04 07:16:18;;;;;;;43.08;13.25;;;4.20;99.90;;;;;;5095440;28;20045;-91
2021/12/04 07:18:44;;;;;;;33.22;13.90;;;4.20;99.90;;;;;;5077552;28;20052;-90
2021/12/04 07:21:10;;;;;;;52.35;14.63;;;4.20;99.90;;;;;;5095412;28;20431;-91
2021/12/04 07:23:37;;;;;;;41.47;14.52;;;4.20;99.90;;;;;;5106262;28;20568;-90
2021/12/04 07:26:04;;;;;;;37.20;14.60;;;4.20;99.90;;;;;;5098798;28;20481;-90
2021/12/04 07:28:29;;;;;;;43.20;14.93;;;4.20;99.90;;;;;;5115684;28;20087;-90
2021/12/04 07:30:55;;;;;;;46.50;15.88;;;4.20;99.90;;;;;;5133016;28;20055;-90
2021/12/04 07:33:21;;;;;;;43.63;15.32;;;4.20;99.90;;;;;;5115990;28;20062;-90
2021/12/04 07:35:47;;;;;;;44.20;15.80;;;4.20;99.90;;;;;;5115421;28;20080;-91
2021/12/04 07:38:14;;;;;;;43.65;15.05;;;4.20;99.90;;;;;;5098063;28;20051;-90
2021/12/04 07:40:41;;;;;;;40.47;15.15;;;4.20;99.90;;;;;;5115624;28;20094;-91
2021/12/04 07:43:07;;;;;;;40.63;15.68;;;4.20;99.90;;;;;;5116072;28;20043;-89
2021/12/04 07:45:32;;;;;;;39.97;15.65;;;4.30;99.90;;;;;;5098892;28;20512;-91
2021/12/04 07:47:58;;;;;;;43.95;16.35;;;4.20;99.90;;;;;;5099143;28;20062;-90
2021/12/04 07:50:24;;;;;;;51.17;16.45;;;4.20;99.90;;;;;;5098959;28;20047;-91
2021/12/04 07:52:50;;;;;;;52.70;17.17;;;4.20;99.90;;;;;;5098627;28;20081;-91
2021/12/04 07:55:16;;;;;;;50.67;16.88;;;4.20;99.90;;;;;;5099210;28;20422;-90
2021/12/04 07:57:42;;;;;;;61.42;17.88;;;4.20;99.90;;;;;;5098498;28;20093;-90
2021/12/04 08:00:12;;;;;;;57.50;18.73;;;4.20;99.90;;;;;;5116351;28;20488;-90
2021/12/04 08:02:40;;;;;;;61.15;18.90;;;4.30;99.90;;;;;;5098827;28;20039;-90
2021/12/04 08:05:07;;;;;;;56.47;17.50;;;4.30;99.90;;;;;;5097797;28;20086;-91
2021/12/04 08:07:33;;;;;;;66.57;19.75;;;4.30;99.90;;;;;;5116158;28;20505;-91
2021/12/04 08:09:58;;;;;;;48.85;16.70;;;4.30;99.90;;;;;;5115884;28;20052;-91
2021/12/04 08:12:24;;;;;;;50.60;18.80;;;4.30;99.90;;;;;;5099058;28;20074;-90
2021/12/04 08:14:51;;;;;;;58.00;19.65;;;4.30;99.90;;;;;;5098176;28;20051;-91
2021/12/04 08:17:16;;;;;;;54.22;19.02;;;4.30;99.90;;;;;;5098785;28;20050;-90
2021/12/04 08:19:42;;;;;;;62.33;20.55;;;4.50;99.90;;;;;;5115574;28;20039;-89
2021/12/04 08:22:08;;;;;;;61.45;19.63;;;4.60;99.90;;;;;;5115783;28;20088;-91
2021/12/04 08:24:34;;;;;;;66.22;19.67;;;4.30;99.90;;;;;;5115397;28;20055;-90
2021/12/04 08:27:01;;;;;;;53.38;18.80;;;4.50;99.90;;;;;;5098110;28;20039;-91
2021/12/04 08:29:27;;;;;;;72.65;20.15;;;4.40;99.90;;;;;;5098875;28;20053;-91
2021/12/04 08:31:52;;;;;;;61.85;19.10;;;4.40;99.90;;;;;;5116609;27;20491;-91
2021/12/04 08:34:18;;;;;;;50.70;17.58;;;4.40;99.90;;;;;;5118860;27;20043;-90
2021/12/04 08:36:45;;;;;;;67.10;19.23;;;4.50;99.90;;;;;;5101869;27;20051;-90
2021/12/04 08:39:11;;;;;;;55.80;18.50;;;4.50;99.90;;;;;;5102047;27;20046;-90
2021/12/04 08:41:37;;;;;;;52.50;17.95;;;4.50;99.90;;;;;;5119227;27;20079;-91
2021/12/04 08:44:03;;;;;;;59.97;18.35;;;4.50;99.90;;;;;;5102046;27;20480;-91
2021/12/04 08:46:31;;;;;;;56.58;19.33;;;4.50;99.90;;;;;;5102046;27;20088;-91
2021/12/04 08:48:57;;;;;;;60.28;18.73;;;4.50;99.90;;;;;;5119217;27;20126;-91
2021/12/04 08:51:24;;;;;;;75.03;19.65;;;4.80;99.90;;;;;;5100926;27;20139;-91
2021/12/04 08:53:52;;;;;;;66.65;20.05;;;4.70;99.90;;;;;;5119052;27;20039;-91
2021/12/04 08:56:18;;;;;;;66.13;19.60;;;4.50;99.90;;;;;;5118843;27;20043;-91
2021/12/04 08:58:44;;;;;;;71.13;18.92;;;4.50;99.90;;;;;;5118683;27;20039;-90
2021/12/04 09:01:14;;;;;;;65.40;18.80;;;4.50;99.90;;;;;;5118643;27;20162;-90
2021/12/04 09:03:46;;;;;;;81.43;20.57;;;4.60;99.90;;;;;;5117998;27;20054;-91
2021/12/04 09:06:13;;;;;;;93.82;20.63;;;4.60;99.90;;;;;;5118483;27;20325;-90
2021/12/04 09:08:39;;;;;;;71.95;19.92;;;4.60;99.90;;;;;;5118657;27;20073;-91
2021/12/04 09:11:13;;;;;;;76.47;20.92;;;4.60;99.90;;;;;;5118463;27;20544;-89
2021/12/04 09:13:39;;;;;;;80.57;21.05;;;4.60;99.90;;;;;;5118561;27;20058;-90
2021/12/04 09:16:06;;;;;;;65.65;20.75;;;4.70;99.90;;;;;;5118552;27;20134;-91
2021/12/04 09:18:32;;;;;;;68.57;19.77;;;4.60;99.90;;;;;;5118109;27;20040;-90
2021/12/04 09:20:57;;;;;;;56.70;19.45;;;4.60;99.90;;;;;;5118704;27;20049;-91
2021/12/04 09:23:27;;;;;;;60.15;18.15;;;4.60;99.90;;;;;;5117779;27;20435;-90
2021/12/04 09:25:56;;;;;;;74.05;19.15;;;4.90;99.90;;;;;;5118254;27;20424;-91
2021/12/04 09:28:25;;;;;;;71.57;20.20;;;4.60;99.90;;;;;;5118791;27;20051;-91
2021/12/04 10:00:53;;;;;;;69.45;20.77;;;4.90;99.90;;;;;;5134403;27;20080;-90
2021/12/04 10:19:56;;;;;;;59.38;19.38;;;5.00;99.90;;;;;;5116869;27;20050;-91
2021/12/04 10:22:31;;;;;;;48.78;19.13;;;4.90;99.90;;;;;;5116886;27;20135;-90
2021/12/04 10:33:47;;;;;;;44.53;16.63;;;5.10;99.90;;;;;;5116771;27;19919;-90
2021/12/04 10:36:29;;;;;;;60.83;18.00;;;5.00;99.90;;;;;;5116454;27;20038;-90
2021/12/04 10:38:55;;;;;;;54.08;18.70;;;5.00;99.90;;;;;;5117092;27;20059;-91
2021/12/04 10:41:35;;;;;;;52.63;17.85;;;5.00;99.90;;;;;;5116468;27;20511;-90
2021/12/04 10:44:28;;;;;;;51.70;18.58;;;5.10;99.90;;;;;;5099433;27;20039;-90
2021/12/04 10:46:59;;;;;;;55.95;19.20;;;5.10;99.90;;;;;;5095892;27;20050;-89
2021/12/04 10:52:57;;;;;;;62.90;19.85;;;5.10;99.90;;;;;;5116511;27;20043;-89
2021/12/04 11:03:06;;;;;;;59.35;19.95;;;5.10;99.90;;;;;;5116125;27;20047;-90
2021/12/04 11:22:38;;;;;;;61.80;21.20;;;5.10;99.90;;;;;;5115719;28;20437;-90
2021/12/04 11:27:58;;;;;;;65.57;20.58;;;5.20;99.90;;;;;;5116401;28;20126;-90
2021/12/04 11:43:52;;;;;;;63.00;19.77;;;5.20;99.90;;;;;;5116029;28;20542;-90
2021/12/04 11:46:25;;;;;;;69.43;21.80;;;5.10;99.90;;;;;;5115931;28;20043;-89
2021/12/04 11:48:51;;;;;;;77.40;21.95;;;5.10;99.90;;;;;;5133649;28;20054;-91
2021/12/04 11:51:19;;;;;;;92.07;24.00;;;5.10;99.90;;;;;;5115953;28;20058;-90
2021/12/04 11:53:46;;;;;;;94.32;23.95;;;5.10;99.90;;;;;;5115597;28;20058;-91
2021/12/04 11:56:14;;;;;;;91.93;25.08;;;5.20;99.90;;;;;;5115468;28;20047;-89
2021/12/04 11:58:45;;;;;;;92.75;26.45;;;5.30;99.90;;;;;;5115879;28;20050;-89
2021/12/04 12:01:21;;;;;;;99.18;25.33;;;5.30;99.90;;;;;;5115813;28;20043;-90
2021/12/04 12:03:56;;;;;;;100.07;25.58;;;5.20;99.90;;;;;;5098516;28;20086;-88
2021/12/04 12:06:40;;;;;;;102.47;27.55;;;5.20;99.90;;;;;;5117282;27;20129;-90
2021/12/04 12:09:08;;;;;;;80.18;25.67;;;5.20;99.90;;;;;;5119790;27;20445;-90
2021/12/04 12:11:35;;;;;;;75.18;24.95;;;5.20;99.90;;;;;;5119573;27;20074;-89
2021/12/04 12:14:07;;;;;;;70.15;23.58;;;5.30;99.90;;;;;;5120047;27;20432;-91
2021/12/04 12:16:38;;;;;;;68.47;25.27;;;5.30;99.90;;;;;;5102624;27;20043;-90
2021/12/04 12:19:09;;;;;;;65.35;22.92;;;5.30;99.90;;;;;;5119345;27;20408;-91
2021/12/04 12:21:56;;;;;;;60.40;22.67;;;5.30;99.90;;;;;;5102690;27;20050;-90
2021/12/04 12:32:58;;;;;;;81.60;26.17;;;5.20;99.90;;;;;;5118907;27;20336;-90
2021/12/04 12:38:33;;;;;;;82.10;25.52;;;5.20;99.90;;;;;;5118829;27;20070;-90
2021/12/04 12:41:10;;;;;;;72.68;26.88;;;5.30;99.90;;;;;;5119243;27;20043;-90
2021/12/04 12:43:42;;;;;;;105.07;31.92;;;5.20;99.90;;;;;;5118722;27;20043;-90
2021/12/04 12:46:07;;;;;;;;;;;5.20;99.90;;;;;;5119144;27;20096;-90
2021/12/04 12:48:46;;;;;;;97.72;30.73;;;5.20;99.90;;;;;;5101827;27;19923;-90
2021/12/04 12:51:22;;;;;;;108.43;33.55;;;5.20;99.90;;;;;;5118962;27;20047;-90
2021/12/04 12:53:48;;;;;;;106.88;34.30;;;4.90;99.90;;;;;;5118621;27;20113;-90
2021/12/04 12:56:16;;;;;;;102.38;34.58;;;5.30;99.90;;;;;;5101652;27;20068;-90
2021/12/04 12:58:50;;;;;;;116.78;34.40;;;5.10;99.90;;;;;;5101566;27;20484;-90
2021/12/04 13:13:33;;;;;;;105.57;34.63;;;5.10;99.90;;;;;;5033317;28;20052;-90
2021/12/04 13:16:13;;;;;;;99.55;35.25;;;5.10;99.90;;;;;;5016984;28;20050;-90
2021/12/04 13:18:40;;;;;;;101.85;34.90;;;5.00;99.90;;;;;;5015933;28;20049;-89
2021/12/04 13:21:09;;;;;;;102.63;35.97;;;5.10;99.90;;;;;;5016655;28;20056;-91
2021/12/04 13:23:38;;;;;;;94.28;34.83;;;5.10;99.90;;;;;;4999815;28;20197;-90
2021/12/04 13:26:10;;;;;;;92.18;34.60;;;5.00;99.90;;;;;;5016657;28;20487;-90
2021/12/04 13:28:40;;;;;;;89.85;34.85;;;5.10;99.90;;;;;;5016644;28;20054;-90
2021/12/04 13:31:07;;;;;;;88.38;33.33;;;5.10;99.90;;;;;;5000235;28;20056;-91
2021/12/04 13:33:36;;;;;;;83.78;34.17;;;5.10;99.90;;;;;;5016343;28;20053;-90
2021/12/04 13:36:10;;;;;;;94.78;35.08;;;5.10;99.90;;;;;;5033055;28;20140;-90
2021/12/04 13:38:36;;;;;;;93.18;37.60;;;5.10;99.90;;;;;;5016672;28;20050;-90
2021/12/04 13:41:02;;;;;;;116.15;38.75;;;5.10;99.90;;;;;;5016341;28;20080;-92
2021/12/04 13:43:28;;;;;;;111.00;38.38;;;5.10;99.90;;;;;;5000148;28;20068;-90
2021/12/04 13:45:58;;;;;;;116.55;39.22;;;5.10;99.90;;;;;;5000288;28;20527;-91
2021/12/04 13:48:24;;;;;;;114.05;39.13;;;5.10;99.90;;;;;;5002134;28;20412;-91
2021/12/04 13:50:50;;;;;;;107.55;37.85;;;5.10;99.90;;;;;;5080310;28;20040;-91
2021/12/04 13:53:21;;;;;;;141.38;40.35;;;5.00;99.90;;;;;;5097469;28;20122;-90
2021/12/04 13:55:53;;;;;;;120.30;38.88;;;5.00;99.90;;;;;;5097061;28;20047;-91
2021/12/04 13:58:19;;;;;;;117.38;38.38;;;5.00;99.90;;;;;;5097416;28;20602;-90
2021/12/04 14:00:45;;;;;;;156.02;40.65;;;5.00;99.90;;;;;;5080367;28;20075;-90
2021/12/04 14:03:12;;;;;;;127.97;37.95;;;5.00;99.90;;;;;;5096900;28;20074;-91
2021/12/04 14:05:38;;;;;;;126.72;40.17;;;5.10;99.90;;;;;;5096648;28;20127;-90
2021/12/04 14:08:05;;;;;;;150.13;39.20;;;5.00;99.90;;;;;;5097101;28;20085;-90
2021/12/04 14:10:38;;;;;;;140.95;41.78;;;5.00;99.90;;;;;;5079649;28;20098;-90
2021/12/04 14:13:04;;;;;;;122.90;39.00;;;5.00;99.90;;;;;;5097055;28;20102;-91
2021/12/04 14:15:31;;;;;;;143.38;40.42;;;5.00;99.90;;;;;;5097213;28;20043;-91
2021/12/04 14:18:08;;;;;;;135.32;42.40;;;5.00;99.90;;;;;;5096903;28;20046;-91
2021/12/04 14:20:37;;;;;;;134.52;40.30;;;5.20;99.90;;;;;;5096971;28;20055;-91
2021/12/04 14:23:03;;;;;;;127.30;40.05;;;5.00;99.90;;;;;;5096927;28;20389;-91
2021/12/04 14:25:29;;;;;;;129.48;39.63;;;5.00;99.90;;;;;;5129669;27;20454;-92
2021/12/04 14:27:57;;;;;;;157.30;40.42;;;5.00;99.90;;;;;;5100503;27;20420;-92
2021/12/04 14:30:34;;;;;;;140.32;41.03;;;5.00;99.90;;;;;;5100357;27;20480;-91
2021/12/04 14:33:03;;;;;;;112.28;36.92;;;5.00;99.90;;;;;;5100084;27;20047;-90
2021/12/04 14:35:32;;;;;;;150.32;40.10;;;5.00;99.90;;;;;;5100162;27;20050;-91
2021/12/04 14:38:00;;;;;;;140.15;40.30;;;5.10;99.90;;;;;;5099984;27;20398;-91
2021/12/04 14:40:40;;;;;;;176.65;41.15;;;5.00;99.90;;;;;;5117246;27;20043;-91
2021/12/04 14:43:07;;;;;;;141.88;41.40;;;5.00;99.90;;;;;;5100114;27;20430;-91
2021/12/04 14:45:37;;;;;;;134.50;41.17;;;5.00;99.90;;;;;;5099798;27;20051;-92
2021/12/04 14:48:22;;;;;;;152.85;42.72;;;5.10;99.90;;;;;;5098934;27;20104;-91
2021/12/04 14:50:52;;;;;;;167.02;42.63;;;5.00;99.90;;;;;;5117635;27;20047;-91
2021/12/04 14:53:20;;;;;;;144.05;42.17;;;5.20;99.90;;;;;;5117278;27;20055;-91
2021/12/04 14:55:51;;;;;;;134.63;42.45;;;5.00;99.90;;;;;;5116900;28;20070;-90
2021/12/04 14:58:23;;;;;;;147.98;40.88;;;5.00;99.90;;;;;;5099868;27;20396;-91
2021/12/04 15:00:59;;;;;;;143.68;40.63;;;5.10;99.90;;;;;;5116938;27;20408;-91
2021/12/04 15:03:35;;;;;;;131.20;39.78;;;5.20;99.90;;;;;;5099829;27;20508;-91
2021/12/04 15:06:04;;;;;;;131.90;39.35;;;5.20;99.90;;;;;;5116659;27;20049;-91
2021/12/04 15:08:38;;;;;;;127.45;39.00;;;5.10;99.90;;;;;;5116754;27;20043;-91
2021/12/04 15:11:21;;;;;;;144.15;39.20;;;5.00;99.90;;;;;;5116962;27;20058;-90
2021/12/04 15:14:08;;;;;;;124.20;39.97;;;5.00;99.90;;;;;;5116082;27;20043;-90
2021/12/04 15:16:41;;;;;;;133.95;39.05;;;5.00;99.90;;;;;;5116806;27;20125;-93
2021/12/04 15:19:15;;;;;;;121.20;38.90;;;5.00;99.90;;;;;;5116476;28;20035;-91
2021/12/04 15:21:49;;;;;;;152.70;39.83;;;5.00;99.90;;;;;;5116421;28;20055;-92
2021/12/04 15:24:23;;;;;;;125.75;37.30;;;5.00;99.90;;;;;;5099472;28;20039;-91
2021/12/04 15:26:58;;;;;;;144.80;39.13;;;5.00;99.90;;;;;;5099712;28;20051;-91
2021/12/04 15:29:27;;;;;;;130.45;38.40;;;5.00;99.90;;;;;;5116465;28;20046;-92
2021/12/04 15:31:55;;;;;;;146.60;39.67;;;5.00;99.90;;;;;;5116465;28;20051;-92
2021/12/04 15:34:39;;;;;;;155.95;39.35;;;5.00;99.90;;;;;;5116207;28;20047;-91
2021/12/04 15:37:06;;;;;;;150.20;41.35;;;5.00;99.90;;;;;;5099394;28;20062;-91
2021/12/04 15:39:36;;;;;;;118.55;37.42;;;5.00;99.90;;;;;;5099343;28;20047;-93
2021/12/04 15:42:29;;;;;;;135.98;39.08;;;5.00;99.90;;;;;;5119913;27;20051;-92
2021/12/04 15:48:37;;;;;;;140.80;38.72;;;5.00;99.90;;;;;;5099722;28;20055;-94
2021/12/04 15:51:46;;;;;;;152.35;38.67;;;5.00;99.90;;;;;;5083416;28;20559;-94